Time;durP1;ratioP1;P1;durP2;ratioP2;P2;SDS_P1;SDS_P2;PMS_P1;PMS_P2;Temp;Humidity;BMP_temperature;BMP_pressure;BME280_temperature;BME280_humidity;BME280_pressure;Samples;Min_cycle;Max_cycle;Signal;HPM_P1;HPM_P2
2022/04/09 03:00:36;;;;;;;0.60;0.50;;;4.80;83.10;;;;;;5927655;23;20461;31
2022/04/09 03:03:04;;;;;;;0.60;0.50;;;4.80;83.40;;;;;;4861946;29;20904;-77
2022/04/09 03:05:31;;;;;;;0.60;0.60;;;4.90;83.30;;;;;;4863450;29;20455;-77
2022/04/09 03:07:58;;;;;;;0.60;0.50;;;4.90;83.30;;;;;;4863166;29;20951;-78
2022/04/09 03:10:25;;;;;;;0.63;0.60;;;4.80;83.10;;;;;;4863756;29;20497;-78
2022/04/09 03:12:52;;;;;;;0.63;0.57;;;4.80;83.50;;;;;;4881908;29;20447;-77
2022/04/09 03:15:18;;;;;;;0.70;0.63;;;4.70;83.70;;;;;;4883302;29;20463;-78
2022/04/09 03:17:45;;;;;;;0.70;0.60;;;4.70;83.90;;;;;;4881767;29;20477;-77
2022/04/09 03:20:13;;;;;;;0.60;0.50;;;4.70;84.10;;;;;;4882252;29;20791;-78
2022/04/09 03:22:45;;;;;;;0.60;0.60;;;4.80;84.50;;;;;;4881559;29;20494;-78
2022/04/09 03:25:12;;;;;;;0.60;0.60;;;4.90;83.80;;;;;;4881977;29;20518;-78
2022/04/09 03:27:39;;;;;;;0.60;0.50;;;4.80;83.70;;;;;;4881586;29;20461;-77
2022/04/09 03:30:08;;;;;;;0.70;0.60;;;4.80;83.80;;;;;;4881685;29;20545;-78
2022/04/09 03:32:36;;;;;;;0.60;0.60;;;4.90;83.80;;;;;;4881556;29;20502;-77
2022/04/09 03:35:03;;;;;;;0.60;0.60;;;4.90;83.80;;;;;;4881512;29;20482;-77
2022/04/09 03:37:31;;;;;;;0.70;0.60;;;5.00;83.80;;;;;;4881368;29;20454;-78
2022/04/09 03:39:57;;;;;;;0.70;0.60;;;5.00;83.50;;;;;;4881349;29;20450;-77
2022/04/09 03:42:24;;;;;;;0.60;0.60;;;5.00;83.30;;;;;;4881190;29;20527;-77
2022/04/09 03:44:51;;;;;;;0.70;0.60;;;4.90;83.40;;;;;;4881328;29;20459;-78
2022/04/09 03:47:17;;;;;;;0.60;0.60;;;4.80;83.20;;;;;;4881028;29;20511;-77
2022/04/09 03:49:44;;;;;;;0.70;0.70;;;4.60;84.10;;;;;;4881176;29;20878;-77
2022/04/09 03:52:11;;;;;;;0.70;0.70;;;4.70;84.60;;;;;;4881053;29;20528;-77
2022/04/09 03:54:39;;;;;;;0.67;0.60;;;4.70;84.40;;;;;;4881958;29;20446;-78
2022/04/09 03:57:06;;;;;;;0.70;0.60;;;4.70;84.30;;;;;;4881109;29;20455;-78
2022/04/09 03:59:33;;;;;;;0.70;0.70;;;4.60;84.50;;;;;;4880719;29;20947;-77
2022/04/09 04:01:59;;;;;;;0.67;0.60;;;4.70;84.70;;;;;;4880653;29;20542;-78
2022/04/09 04:04:26;;;;;;;0.87;0.67;;;4.50;84.50;;;;;;4880998;29;20455;-77
2022/04/09 04:06:53;;;;;;;0.70;0.70;;;4.50;85.30;;;;;;4880883;29;20450;-77
2022/04/09 04:09:19;;;;;;;0.70;0.70;;;4.40;85.30;;;;;;4880810;29;20514;-77
2022/04/09 04:11:48;;;;;;;0.70;0.70;;;4.40;85.50;;;;;;4880723;29;20486;-77
2022/04/09 04:14:14;;;;;;;0.80;0.80;;;4.40;85.70;;;;;;4881026;29;20465;-77
2022/04/09 04:16:41;;;;;;;1.00;0.90;;;4.20;86.00;;;;;;4880766;29;20507;-77
2022/04/09 04:19:08;;;;;;;0.80;0.77;;;4.20;86.30;;;;;;4880681;29;20451;-78
2022/04/09 04:21:37;;;;;;;0.87;0.87;;;4.20;86.30;;;;;;4880584;29;20485;-77
2022/04/09 04:24:04;;;;;;;0.90;0.90;;;4.30;86.20;;;;;;4880468;29;20490;-77
2022/04/09 04:26:31;;;;;;;1.00;0.90;;;4.30;86.30;;;;;;4880645;29;20467;-77
2022/04/09 04:28:59;;;;;;;1.00;0.80;;;4.40;85.90;;;;;;4881094;29;20450;-77
2022/04/09 04:31:25;;;;;;;0.73;0.73;;;4.40;85.30;;;;;;4880740;29;20474;-78
2022/04/09 04:33:52;;;;;;;0.90;0.90;;;4.40;85.50;;;;;;4880569;29;20484;-77
2022/04/09 04:36:19;;;;;;;1.17;1.10;;;4.40;85.10;;;;;;4880765;29;20450;-77
2022/04/09 04:38:47;;;;;;;1.07;0.97;;;4.30;85.10;;;;;;4880677;29;20447;-77
2022/04/09 04:41:14;;;;;;;0.83;0.83;;;4.30;85.60;;;;;;4880783;29;20474;-77
2022/04/09 04:43:40;;;;;;;0.90;0.90;;;4.40;85.20;;;;;;4880642;29;20482;-78
2022/04/09 04:46:08;;;;;;;1.27;1.00;;;4.40;85.30;;;;;;4880710;29;20795;-77
2022/04/09 04:48:35;;;;;;;0.90;0.90;;;4.40;85.30;;;;;;4880292;29;20964;-77
2022/04/09 04:51:01;;;;;;;1.00;1.00;;;4.40;84.90;;;;;;4880187;29;20478;-78
2022/04/09 04:53:28;;;;;;;1.00;1.00;;;4.40;85.00;;;;;;4881191;29;20480;-78
2022/04/09 04:55:55;;;;;;;1.00;1.00;;;4.30;85.20;;;;;;4885876;29;20462;-78
2022/04/09 04:58:21;;;;;;;1.10;1.10;;;4.40;85.00;;;;;;4883641;29;20510;-78
2022/04/09 05:00:48;;;;;;;1.00;1.00;;;4.50;84.50;;;;;;4880996;29;20474;-77
2022/04/09 05:03:16;;;;;;;1.00;1.00;;;4.40;84.50;;;;;;4880035;29;20578;-77
2022/04/09 05:05:43;;;;;;;0.83;0.83;;;4.40;84.60;;;;;;4880035;29;20458;-77
2022/04/09 05:08:10;;;;;;;1.00;1.00;;;4.40;84.60;;;;;;4879978;29;20522;-77
2022/04/09 05:10:37;;;;;;;1.00;1.00;;;4.60;84.40;;;;;;4879793;29;20946;-77
2022/04/09 05:13:03;;;;;;;1.00;1.00;;;4.70;84.00;;;;;;4880657;29;20446;-78
2022/04/09 05:15:30;;;;;;;0.90;0.90;;;4.70;83.60;;;;;;4880259;29;20877;-78
2022/04/09 05:17:57;;;;;;;1.00;1.00;;;4.70;83.30;;;;;;4880242;29;20455;-77
2022/04/09 05:20:25;;;;;;;0.87;0.83;;;4.60;83.20;;;;;;4880301;29;20491;-78
2022/04/09 05:22:51;;;;;;;1.10;1.10;;;4.60;83.40;;;;;;4879900;29;20482;-77
2022/04/09 05:25:20;;;;;;;0.93;0.93;;;4.70;83.50;;;;;;4880218;29;20454;-78
2022/04/09 05:27:48;;;;;;;1.00;1.00;;;4.80;83.00;;;;;;4880505;29;20502;-78
2022/04/09 05:30:15;;;;;;;1.10;1.10;;;4.90;83.10;;;;;;4879746;29;20522;-77
2022/04/09 05:32:43;;;;;;;1.00;1.00;;;4.90;82.20;;;;;;4879671;29;20486;-77
2022/04/09 05:35:11;;;;;;;1.13;1.00;;;5.10;82.40;;;;;;4879802;29;20505;-77
2022/04/09 05:37:43;;;;;;;1.00;1.00;;;5.20;82.10;;;;;;4879865;29;20546;-78
2022/04/09 05:40:11;;;;;;;1.03;1.03;;;5.40;81.70;;;;;;4879769;29;20439;-78
2022/04/09 05:42:38;;;;;;;0.83;0.80;;;5.50;80.70;;;;;;4879838;29;20511;-78
2022/04/09 05:45:05;;;;;;;1.00;0.90;;;5.70;80.60;;;;;;4879747;29;20502;-77
2022/04/09 05:47:31;;;;;;;0.90;0.90;;;6.00;80.40;;;;;;4879331;29;20962;-77
2022/04/09 05:49:59;;;;;;;0.80;0.80;;;6.30;80.00;;;;;;4879737;29;20457;-78
2022/04/09 05:52:25;;;;;;;0.90;0.80;;;6.60;78.90;;;;;;4879810;29;20561;-77
2022/04/09 05:54:54;;;;;;;0.80;0.80;;;6.80;77.20;;;;;;4879739;29;20515;-77
2022/04/09 05:57:20;;;;;;;0.80;0.80;;;6.80;75.80;;;;;;4879863;29;20466;-77
2022/04/09 05:59:47;;;;;;;1.00;0.80;;;6.90;75.70;;;;;;4881188;29;20462;-78
2022/04/09 06:02:14;;;;;;;0.80;0.70;;;7.20;75.50;;;;;;4887211;29;20482;-78
2022/04/09 06:04:40;;;;;;;0.70;0.70;;;7.80;74.30;;;;;;4898722;29;20497;-78
2022/04/09 06:07:09;;;;;;;0.77;0.77;;;8.70;71.80;;;;;;4899700;29;20515;-78
2022/04/09 06:09:36;;;;;;;0.80;0.80;;;9.90;69.30;;;;;;4883040;29;20465;-78
2022/04/09 06:12:06;;;;;;;0.80;0.70;;;10.80;66.60;;;;;;4884632;29;20897;-77
2022/04/09 06:14:33;;;;;;;0.70;0.70;;;11.10;63.00;;;;;;4884251;29;20461;-78
2022/04/09 06:16:59;;;;;;;0.77;0.77;;;10.90;62.90;;;;;;4884379;29;20612;-78
2022/04/09 06:19:27;;;;;;;0.70;0.60;;;10.40;64.00;;;;;;4883658;29;20462;-78
2022/04/09 06:21:53;;;;;;;0.80;0.80;;;9.60;65.70;;;;;;4883358;29;20493;-78
2022/04/09 06:24:20;;;;;;;0.70;0.70;;;9.20;66.60;;;;;;4883295;29;20858;-78
2022/04/09 06:26:47;;;;;;;0.70;0.70;;;9.50;67.60;;;;;;4883031;29;20969;-78
2022/04/09 06:29:15;;;;;;;0.87;0.87;;;10.30;66.80;;;;;;4882932;29;20454;-79
2022/04/09 06:31:44;;;;;;;0.90;0.90;;;11.70;62.40;;;;;;4883070;29;20892;-79
2022/04/09 06:34:11;;;;;;;0.70;0.60;;;12.30;59.90;;;;;;4882471;29;21022;-78
2022/04/09 06:36:37;;;;;;;0.70;0.70;;;13.40;56.60;;;;;;4883313;29;20509;-78
2022/04/09 06:39:04;;;;;;;0.93;0.80;;;14.30;57.30;;;;;;4882748;29;20507;-78
2022/04/09 06:41:31;;;;;;;0.80;0.80;;;14.50;53.90;;;;;;4882764;29;20478;-79
2022/04/09 06:43:58;;;;;;;0.83;0.73;;;15.30;52.50;;;;;;4882227;29;21006;-79
2022/04/09 06:46:26;;;;;;;0.83;0.80;;;15.80;51.70;;;;;;4882915;29;20462;-79
2022/04/09 06:48:53;;;;;;;0.83;0.73;;;16.60;50.10;;;;;;4882610;29;20470;-79
2022/04/09 06:51:20;;;;;;;0.83;0.70;;;17.00;49.20;;;;;;4882522;29;20482;-79
2022/04/09 06:53:46;;;;;;;0.70;0.70;;;17.30;48.30;;;;;;4882684;29;20466;-79
2022/04/09 06:56:14;;;;;;;0.70;0.70;;;15.90;50.00;;;;;;4882477;29;20466;-79
2022/04/09 06:58:41;;;;;;;0.70;0.70;;;15.20;52.00;;;;;;4882226;29;20461;-79
2022/04/09 07:01:08;;;;;;;0.80;0.80;;;13.90;54.20;;;;;;4881745;29;20908;-78
2022/04/09 07:03:36;;;;;;;1.00;0.80;;;11.70;57.20;;;;;;4882125;29;20498;-78
2022/04/09 07:06:02;;;;;;;0.70;0.70;;;10.60;62.30;;;;;;4882167;29;21030;-79
2022/04/09 07:08:29;;;;;;;0.70;0.70;;;10.40;64.30;;;;;;4882489;29;20455;-78
2022/04/09 07:10:56;;;;;;;0.77;0.77;;;9.50;65.00;;;;;;4881899;29;20534;-77
2022/04/09 07:13:22;;;;;;;0.80;0.80;;;8.60;68.40;;;;;;4881998;29;20455;-78
2022/04/09 07:15:49;;;;;;;1.00;0.90;;;7.90;70.50;;;;;;4881549;29;20962;-78
2022/04/09 07:18:16;;;;;;;0.80;0.80;;;8.10;71.70;;;;;;4881925;29;20450;-78
2022/04/09 07:20:44;;;;;;;0.77;0.77;;;8.50;72.40;;;;;;4881229;29;20470;-78
2022/04/09 07:23:11;;;;;;;0.90;0.80;;;8.80;69.30;;;;;;4881698;29;20466;-78
2022/04/09 07:25:38;;;;;;;0.70;0.70;;;9.10;70.20;;;;;;4881711;29;20512;-79
2022/04/09 07:28:05;;;;;;;0.70;0.70;;;9.30;69.50;;;;;;4881845;29;20510;-79
2022/04/09 07:30:31;;;;;;;0.83;0.83;;;9.60;66.90;;;;;;4881394;29;20978;-78
2022/04/09 07:32:58;;;;;;;1.30;1.00;;;9.20;66.70;;;;;;4882431;29;20454;-78
2022/04/09 07:35:25;;;;;;;0.80;0.80;;;9.20;69.50;;;;;;4882558;29;20451;-78
2022/04/09 07:37:55;;;;;;;0.87;0.87;;;9.40;67.90;;;;;;4882691;29;20462;-78
2022/04/09 07:40:25;;;;;;;0.70;0.70;;;9.40;68.60;;;;;;4885494;29;20439;-79
2022/04/09 07:42:52;;;;;;;0.77;0.77;;;9.20;69.80;;;;;;4886386;29;20876;-78
2022/04/09 07:45:19;;;;;;;0.70;0.70;;;9.20;68.20;;;;;;4884211;29;21001;-78
2022/04/09 07:47:46;;;;;;;0.80;0.80;;;8.60;69.80;;;;;;4883211;29;20455;-78
2022/04/09 07:50:14;;;;;;;0.90;0.90;;;9.10;69.70;;;;;;4881947;29;20466;-78
2022/04/09 07:52:42;;;;;;;0.70;0.70;;;9.50;68.60;;;;;;4881431;29;20526;-78
2022/04/09 07:55:12;;;;;;;0.70;0.67;;;9.60;69.50;;;;;;4881356;29;20554;-78
2022/04/09 07:57:39;;;;;;;0.70;0.70;;;9.70;67.20;;;;;;4881305;29;20451;-78
2022/04/09 08:00:07;;;;;;;0.70;0.70;;;9.30;67.70;;;;;;4880778;29;20808;-78
2022/04/09 08:02:34;;;;;;;0.80;0.80;;;9.00;68.30;;;;;;4880823;29;20487;-78
2022/04/09 08:05:01;;;;;;;0.90;0.70;;;9.10;70.20;;;;;;4881577;29;20486;-78
2022/04/09 08:07:28;;;;;;;0.90;0.90;;;9.30;70.30;;;;;;4880967;29;20519;-78
2022/04/09 08:09:54;;;;;;;0.80;0.80;;;9.30;69.40;;;;;;4880963;29;20487;-78
2022/04/09 08:12:22;;;;;;;0.90;0.90;;;8.90;69.00;;;;;;4881042;29;20478;-78
2022/04/09 08:14:49;;;;;;;0.80;0.80;;;8.40;70.10;;;;;;4880922;29;20511;-78
2022/04/09 08:17:20;;;;;;;0.70;0.60;;;8.30;72.10;;;;;;4881146;29;20458;-78
2022/04/09 08:19:46;;;;;;;0.70;0.70;;;8.00;72.30;;;;;;4881286;29;20443;-78
2022/04/09 08:22:13;;;;;;;0.90;0.90;;;7.90;72.30;;;;;;4880582;29;20478;-78
2022/04/09 08:24:41;;;;;;;1.10;0.80;;;7.60;73.00;;;;;;4880602;29;20486;-78
2022/04/09 08:27:08;;;;;;;0.73;0.73;;;7.70;74.10;;;;;;4880829;29;20459;-78
2022/04/09 08:29:36;;;;;;;0.90;0.80;;;7.80;74.80;;;;;;4880645;29;20462;-78
2022/04/09 08:32:04;;;;;;;0.70;0.70;;;7.60;72.10;;;;;;4880216;29;20522;-78
2022/04/09 08:34:33;;;;;;;1.00;0.90;;;7.50;73.90;;;;;;4880055;29;20462;-78
2022/04/09 08:37:00;;;;;;;0.70;0.70;;;7.60;74.10;;;;;;4880441;29;20832;-78
2022/04/09 08:39:27;;;;;;;0.90;0.80;;;7.40;73.40;;;;;;4880362;29;20461;-78
2022/04/09 08:41:53;;;;;;;1.93;0.80;;;7.20;73.70;;;;;;4880079;29;20986;-78
2022/04/09 08:44:21;;;;;;;1.07;0.80;;;7.20;74.80;;;;;;4880255;29;20542;-78
2022/04/09 08:46:49;;;;;;;1.10;1.00;;;7.30;73.70;;;;;;4880193;29;20955;-78
2022/04/09 08:49:16;;;;;;;0.80;0.80;;;7.50;75.00;;;;;;4880250;29;20889;-77
2022/04/09 08:51:43;;;;;;;0.90;0.90;;;7.50;73.90;;;;;;4880218;29;20534;-78
2022/04/09 08:54:10;;;;;;;1.00;0.73;;;7.50;73.30;;;;;;4880143;29;20503;-78
2022/04/09 08:56:38;;;;;;;0.70;0.70;;;7.40;73.20;;;;;;4880209;29;20494;-78
2022/04/09 08:59:05;;;;;;;1.07;0.97;;;7.20;73.90;;;;;;4880050;29;20497;-78
2022/04/09 09:01:32;;;;;;;0.70;0.70;;;7.20;75.80;;;;;;4879823;29;20526;-78
2022/04/09 09:04:01;;;;;;;0.70;0.70;;;7.30;76.10;;;;;;4880086;29;20522;-78
2022/04/09 09:06:30;;;;;;;1.03;0.80;;;7.60;75.40;;;;;;4883532;29;20808;-77
2022/04/09 09:08:57;;;;;;;0.80;0.80;;;7.50;74.30;;;;;;4879988;29;20465;-78
2022/04/09 09:11:26;;;;;;;1.17;0.80;;;7.40;74.30;;;;;;4879678;29;20467;-77
2022/04/09 09:13:54;;;;;;;0.80;0.80;;;7.40;75.80;;;;;;4879866;29;20458;-77
2022/04/09 09:16:26;;;;;;;0.70;0.70;;;7.40;75.20;;;;;;4881218;29;20458;-77
2022/04/09 09:18:55;;;;;;;0.80;0.80;;;7.50;75.20;;;;;;4879506;29;20459;-77
2022/04/09 09:21:26;;;;;;;0.83;0.77;;;7.60;75.00;;;;;;4879692;29;20514;-77
2022/04/09 09:23:53;;;;;;;0.70;0.70;;;7.70;76.60;;;;;;4879700;29;20474;-77
2022/04/09 09:26:21;;;;;;;1.00;0.90;;;7.40;74.20;;;;;;4879379;29;20935;-77
2022/04/09 09:28:55;;;;;;;1.07;0.70;;;7.30;74.30;;;;;;4879814;29;20485;-77
2022/04/09 09:31:39;;;;;;;0.80;0.70;;;7.50;73.00;;;;;;4879910;29;20513;-77
2022/04/09 09:34:09;;;;;;;0.70;0.70;;;7.70;72.70;;;;;;4879740;29;20462;-77
2022/04/09 09:36:38;;;;;;;0.80;0.80;;;7.70;72.60;;;;;;4879640;29;20483;-77
2022/04/09 09:39:06;;;;;;;1.00;0.90;;;7.90;74.10;;;;;;4879640;29;20483;-77
2022/04/09 09:41:34;;;;;;;0.80;0.70;;;8.10;74.90;;;;;;4879508;29;20557;-77
2022/04/09 09:44:01;;;;;;;0.80;0.80;;;8.20;72.00;;;;;;4880082;29;20571;-77
2022/04/09 09:46:28;;;;;;;0.80;0.70;;;8.10;71.30;;;;;;4883410;29;20506;-77
2022/04/09 09:48:55;;;;;;;0.77;0.73;;;8.10;70.80;;;;;;4883063;29;20882;-77
2022/04/09 09:51:23;;;;;;;0.90;0.77;;;8.30;71.90;;;;;;4883144;29;20490;-77
2022/04/09 09:54:04;;;;;;;0.80;0.70;;;8.40;69.80;;;;;;4883322;29;20550;-77
2022/04/09 09:56:36;;;;;;;0.87;0.70;;;8.50;70.40;;;;;;4883338;29;20525;-77
2022/04/09 09:59:05;;;;;;;0.80;0.70;;;8.70;70.80;;;;;;4883220;29;20466;-77
2022/04/09 10:01:32;;;;;;;0.70;0.70;;;8.60;70.80;;;;;;4882763;29;20576;-77
2022/04/09 10:04:00;;;;;;;0.80;0.70;;;8.50;69.90;;;;;;4883113;29;20533;-77
2022/04/09 10:06:29;;;;;;;0.70;0.70;;;8.80;71.30;;;;;;4883150;29;20522;-77
2022/04/09 10:08:58;;;;;;;0.70;0.60;;;8.70;68.30;;;;;;4883072;29;20540;-77
2022/04/09 10:11:27;;;;;;;0.70;0.70;;;8.80;70.00;;;;;;4882978;29;20479;-77
2022/04/09 10:13:56;;;;;;;0.80;0.70;;;9.20;69.50;;;;;;4882787;29;20484;-77
2022/04/09 10:16:27;;;;;;;0.80;0.80;;;9.40;67.80;;;;;;4882817;29;20517;-77
2022/04/09 10:18:59;;;;;;;0.80;0.70;;;9.60;67.50;;;;;;4882885;29;20897;-77
2022/04/09 10:21:28;;;;;;;1.00;0.90;;;9.90;66.90;;;;;;4882849;29;20475;-77
2022/04/09 10:23:57;;;;;;;0.80;0.80;;;10.20;64.80;;;;;;4882325;29;20878;-77
2022/04/09 10:26:24;;;;;;;1.00;0.90;;;10.20;62.30;;;;;;4882690;29;20947;-76
2022/04/09 10:28:51;;;;;;;0.70;0.70;;;10.00;63.80;;;;;;4882424;29;20820;-77
2022/04/09 10:31:33;;;;;;;0.80;0.77;;;9.70;63.70;;;;;;4882822;29;20481;-77
2022/04/09 10:34:01;;;;;;;0.90;0.70;;;9.60;65.30;;;;;;4882553;29;20537;-77
2022/04/09 10:36:59;;;;;;;0.70;0.60;;;9.50;66.10;;;;;;4882533;29;20461;-77
2022/04/09 10:39:29;;;;;;;0.80;0.80;;;9.60;64.70;;;;;;4861353;29;20454;-77
2022/04/09 10:41:57;;;;;;;0.90;0.70;;;9.60;64.50;;;;;;4882678;29;20922;-76
2022/04/09 10:44:53;;;;;;;0.80;0.80;;;9.30;64.70;;;;;;4882021;29;20863;-76
2022/04/09 10:47:19;;;;;;;0.90;0.70;;;9.50;65.00;;;;;;4882433;29;20439;-76
2022/04/09 10:50:11;;;;;;;0.87;0.77;;;9.40;64.10;;;;;;4882028;29;20970;-76
2022/04/09 10:52:39;;;;;;;0.90;0.60;;;9.60;64.60;;;;;;4882209;29;20554;-76
2022/04/09 10:55:32;;;;;;;0.70;0.70;;;9.60;64.20;;;;;;4882071;29;20632;-76
2022/04/09 10:58:08;;;;;;;0.80;0.70;;;9.70;62.80;;;;;;4882088;29;20517;-77
2022/04/09 11:00:37;;;;;;;0.70;0.60;;;9.70;61.90;;;;;;4888428;29;20938;-78
2022/04/09 11:03:15;;;;;;;0.70;0.70;;;9.80;62.00;;;;;;4888766;29;20576;-77
2022/04/09 11:05:43;;;;;;;0.70;0.67;;;9.50;64.70;;;;;;4889361;29;20986;-76
2022/04/09 11:08:14;;;;;;;0.90;0.70;;;9.30;64.50;;;;;;4889134;29;20459;-77
2022/04/09 11:10:43;;;;;;;0.80;0.70;;;9.60;64.10;;;;;;4889465;29;20575;-76
2022/04/09 11:13:12;;;;;;;0.70;0.70;;;9.60;63.70;;;;;;4888440;29;20443;-78
2022/04/09 11:15:40;;;;;;;0.70;0.70;;;9.70;62.30;;;;;;4888698;29;20467;-78
2022/04/09 11:18:07;;;;;;;0.80;0.80;;;10.10;61.30;;;;;;4888466;29;20451;-76
2022/04/09 11:20:35;;;;;;;1.00;0.63;;;10.20;61.40;;;;;;4886447;29;20459;-77
2022/04/09 11:23:10;;;;;;;0.70;0.63;;;10.10;62.30;;;;;;4881688;29;20459;-77
2022/04/09 11:25:37;;;;;;;0.90;0.77;;;10.20;61.30;;;;;;4881697;29;20477;-77
2022/04/09 11:28:10;;;;;;;0.77;0.77;;;10.10;60.50;;;;;;4881744;29;20474;-77
2022/04/09 11:30:37;;;;;;;1.37;0.87;;;10.10;60.70;;;;;;4881757;29;20447;-76
2022/04/09 11:33:04;;;;;;;0.70;0.60;;;10.10;61.30;;;;;;4881663;29;20885;-77
2022/04/09 11:35:34;;;;;;;0.90;0.70;;;10.10;59.80;;;;;;4881620;29;20507;-77
2022/04/09 11:38:01;;;;;;;0.70;0.60;;;10.10;60.10;;;;;;4881545;29;20439;-77
2022/04/09 11:40:28;;;;;;;0.80;0.80;;;9.90;60.00;;;;;;4881461;29;20529;-76
2022/04/09 11:42:57;;;;;;;0.70;0.60;;;9.70;61.50;;;;;;4881506;29;20466;-77
2022/04/09 11:45:27;;;;;;;0.90;0.70;;;9.90;62.90;;;;;;4881102;29;20871;-77
2022/04/09 11:47:57;;;;;;;0.70;0.70;;;10.10;62.10;;;;;;4881711;29;20458;-77
2022/04/09 11:50:25;;;;;;;0.80;0.70;;;10.60;60.80;;;;;;4880958;29;20907;-77
2022/04/09 11:52:52;;;;;;;0.77;0.67;;;10.80;61.60;;;;;;4881342;29;20462;-77
2022/04/09 11:55:19;;;;;;;0.70;0.70;;;11.10;59.50;;;;;;4880900;29;20866;-77
2022/04/09 11:57:50;;;;;;;0.70;0.70;;;11.10;57.10;;;;;;4881161;29;20561;-77
2022/04/09 12:00:18;;;;;;;0.70;0.70;;;11.30;56.10;;;;;;4881237;29;20462;-77
2022/04/09 12:02:46;;;;;;;0.90;0.67;;;11.40;57.10;;;;;;4880716;29;20493;-77
2022/04/09 12:05:14;;;;;;;0.90;0.70;;;11.30;55.80;;;;;;4880930;29;20493;-77
2022/04/09 12:07:42;;;;;;;0.80;0.70;;;11.50;57.70;;;;;;4880957;29;20907;-77
2022/04/09 12:10:22;;;;;;;0.67;0.60;;;12.00;56.60;;;;;;4880973;29;20457;-77
2022/04/09 12:12:55;;;;;;;1.00;0.80;;;12.20;56.10;;;;;;4881083;29;20542;-77
2022/04/09 12:15:28;;;;;;;0.70;0.63;;;12.00;53.40;;;;;;4881140;29;20784;-77
2022/04/09 12:17:56;;;;;;;0.80;0.67;;;11.50;53.20;;;;;;4881060;29;20517;-77
2022/04/09 12:20:35;;;;;;;0.80;0.67;;;11.40;53.30;;;;;;4880856;29;20465;-77
2022/04/09 12:23:02;;;;;;;0.90;0.70;;;11.20;53.60;;;;;;4880904;29;20497;-77
2022/04/09 12:25:36;;;;;;;0.70;0.60;;;11.00;54.20;;;;;;4880855;29;20490;-77
2022/04/09 12:28:04;;;;;;;0.87;0.70;;;11.10;56.20;;;;;;4880866;29;20454;-77
2022/04/09 12:30:41;;;;;;;0.70;0.60;;;11.10;55.10;;;;;;4880590;29;20455;-77
2022/04/09 12:33:11;;;;;;;0.70;0.70;;;10.90;54.80;;;;;;4880669;29;20538;-77
2022/04/09 12:35:37;;;;;;;0.70;0.60;;;11.00;54.70;;;;;;4880599;29;20892;-77
2022/04/09 12:38:04;;;;;;;1.13;1.03;;;11.00;55.20;;;;;;4880415;29;20510;-77
2022/04/09 12:40:32;;;;;;;0.80;0.80;;;11.30;56.90;;;;;;4880807;29;20481;-77
2022/04/09 12:42:59;;;;;;;0.80;0.70;;;11.30;54.70;;;;;;4880421;29;20459;-77
2022/04/09 12:45:27;;;;;;;0.70;0.70;;;11.20;55.60;;;;;;4881002;29;20838;-77
2022/04/09 12:47:55;;;;;;;1.13;1.03;;;11.20;55.20;;;;;;4880409;29;20485;-77
2022/04/09 12:50:27;;;;;;;1.30;0.90;;;11.20;55.00;;;;;;4880320;29;20457;-77
2022/04/09 12:52:55;;;;;;;0.70;0.70;;;11.50;53.80;;;;;;4880339;29;20471;-77
2022/04/09 12:55:23;;;;;;;0.70;0.60;;;11.70;52.80;;;;;;4880146;29;20506;-77
2022/04/09 12:57:50;;;;;;;0.70;0.60;;;11.90;53.90;;;;;;4880366;29;20490;-77
2022/04/09 13:00:18;;;;;;;0.70;0.70;;;12.10;52.80;;;;;;4880103;29;20518;-77
2022/04/09 13:02:45;;;;;;;0.70;0.60;;;12.40;53.90;;;;;;4879852;29;20490;-78
2022/04/09 13:05:13;;;;;;;0.77;0.77;;;12.40;51.90;;;;;;4879950;29;20489;-77
2022/04/09 13:07:41;;;;;;;0.90;0.60;;;12.50;53.80;;;;;;4879756;29;20951;-77
2022/04/09 13:10:09;;;;;;;0.70;0.70;;;13.00;53.40;;;;;;4879976;29;20470;-78
2022/04/09 13:12:36;;;;;;;0.77;0.63;;;13.30;51.90;;;;;;4879886;29;20478;-77
2022/04/09 13:15:03;;;;;;;0.70;0.63;;;13.50;50.80;;;;;;4879856;29;20538;-77
2022/04/09 13:17:33;;;;;;;0.80;0.70;;;13.30;48.80;;;;;;4879609;29;20454;-77
2022/04/09 13:20:01;;;;;;;0.80;0.60;;;13.10;50.40;;;;;;4879451;29;20469;-77
2022/04/09 13:22:28;;;;;;;0.70;0.60;;;13.20;51.30;;;;;;4879799;29;20592;-77
2022/04/09 13:24:56;;;;;;;0.90;0.80;;;13.40;51.20;;;;;;4879614;29;20450;-77
2022/04/09 13:27:22;;;;;;;0.80;0.77;;;13.20;50.20;;;;;;4879690;29;20451;-77
2022/04/09 13:29:49;;;;;;;0.80;0.60;;;13.20;49.40;;;;;;4881378;29;20450;-77
2022/04/09 13:32:17;;;;;;;0.60;0.60;;;13.40;50.10;;;;;;4885161;29;20483;-77
2022/04/09 13:34:45;;;;;;;1.37;0.70;;;13.10;48.00;;;;;;4904074;29;20487;-77
2022/04/09 13:37:12;;;;;;;0.70;0.70;;;12.60;47.20;;;;;;4895415;29;20951;-77
2022/04/09 13:39:39;;;;;;;0.70;0.67;;;12.60;50.70;;;;;;4880090;29;20450;-78
2022/04/09 13:42:09;;;;;;;0.80;0.70;;;12.70;49.30;;;;;;4879732;29;20470;-78
2022/04/09 13:44:37;;;;;;;0.70;0.60;;;12.90;49.90;;;;;;4879991;29;20813;-78
2022/04/09 13:47:04;;;;;;;0.70;0.70;;;12.60;48.50;;;;;;4879696;29;20498;-77
2022/04/09 13:49:30;;;;;;;0.70;0.60;;;12.50;49.30;;;;;;4880368;29;20581;-78
2022/04/09 13:51:58;;;;;;;0.90;0.60;;;12.50;50.40;;;;;;4879460;29;20470;-78
2022/04/09 13:54:24;;;;;;;0.80;0.70;;;12.40;52.00;;;;;;4879580;29;20546;-78
2022/04/09 13:56:51;;;;;;;0.63;0.60;;;12.20;49.70;;;;;;4879449;29;20498;-78
2022/04/09 13:59:19;;;;;;;0.90;0.70;;;11.50;49.40;;;;;;4879798;29;20450;-78
2022/04/09 14:01:46;;;;;;;0.70;0.60;;;11.50;50.60;;;;;;4879158;29;20545;-78
2022/04/09 14:04:14;;;;;;;0.70;0.67;;;11.60;49.40;;;;;;4879236;29;20518;-78
2022/04/09 14:06:40;;;;;;;0.70;0.70;;;11.60;50.40;;;;;;4879265;29;20485;-78
2022/04/09 14:09:07;;;;;;;0.70;0.60;;;11.30;49.80;;;;;;4879206;29;20883;-78
2022/04/09 14:11:35;;;;;;;0.70;0.60;;;11.10;50.70;;;;;;4879327;29;20478;-78
2022/04/09 14:14:02;;;;;;;0.70;0.60;;;11.10;52.30;;;;;;4879486;29;20487;-78
2022/04/09 14:16:31;;;;;;;0.80;0.70;;;11.00;51.90;;;;;;4879407;29;20502;-78
2022/04/09 14:18:58;;;;;;;0.70;0.60;;;11.00;52.70;;;;;;4879491;29;20537;-78
2022/04/09 14:21:26;;;;;;;0.60;0.60;;;11.30;52.60;;;;;;4878913;29;21065;-78
2022/04/09 14:23:53;;;;;;;0.70;0.70;;;11.40;51.00;;;;;;4879362;29;20491;-78
2022/04/09 14:26:19;;;;;;;0.70;0.60;;;11.60;51.70;;;;;;4879319;29;20482;-78
2022/04/09 14:28:46;;;;;;;0.90;0.70;;;11.80;52.00;;;;;;4879513;29;20454;-78
2022/04/09 14:31:13;;;;;;;0.80;0.80;;;12.10;50.60;;;;;;4879932;29;20506;-78
2022/04/09 14:33:41;;;;;;;0.73;0.60;;;12.00;48.90;;;;;;4882671;29;20450;-77
2022/04/09 14:36:08;;;;;;;0.70;0.70;;;11.60;49.10;;;;;;4882711;29;20447;-78
2022/04/09 14:38:34;;;;;;;1.00;0.60;;;11.40;49.80;;;;;;4882586;29;20485;-78
2022/04/09 14:41:03;;;;;;;0.70;0.60;;;11.20;50.30;;;;;;4882388;29;20487;-78
2022/04/09 14:43:30;;;;;;;0.70;0.60;;;11.10;50.60;;;;;;4882427;29;20458;-78
2022/04/09 14:45:57;;;;;;;0.70;0.60;;;11.10;49.60;;;;;;4882535;29;20489;-78
2022/04/09 14:48:23;;;;;;;0.90;0.60;;;10.90;52.00;;;;;;4882514;29;20459;-78
2022/04/09 14:50:53;;;;;;;0.70;0.70;;;10.70;51.70;;;;;;4882070;29;20482;-77
2022/04/09 14:53:20;;;;;;;0.70;0.70;;;10.60;52.60;;;;;;4882273;29;20462;-78
2022/04/09 14:55:47;;;;;;;0.80;0.70;;;11.20;51.00;;;;;;4882157;29;20498;-78
2022/04/09 14:58:14;;;;;;;0.77;0.77;;;11.40;50.60;;;;;;4882001;29;20454;-78
2022/04/09 15:00:41;;;;;;;0.80;0.63;;;12.00;51.60;;;;;;4881916;29;20455;-78
2022/04/09 15:03:07;;;;;;;0.70;0.63;;;13.10;48.10;;;;;;4882214;29;20447;-78
2022/04/09 15:05:34;;;;;;;1.20;0.70;;;13.70;46.30;;;;;;4882059;29;20454;-78
2022/04/09 15:08:02;;;;;;;0.80;0.70;;;13.90;46.20;;;;;;4881990;29;20514;-78
2022/04/09 15:10:29;;;;;;;0.70;0.60;;;14.40;44.10;;;;;;4881801;29;20459;-78
2022/04/09 15:12:56;;;;;;;0.70;0.70;;;15.00;43.50;;;;;;4882361;29;20601;-78
2022/04/09 15:15:23;;;;;;;0.70;0.60;;;16.60;41.40;;;;;;4883027;29;20955;-78
2022/04/09 15:17:49;;;;;;;0.70;0.70;;;17.40;40.30;;;;;;4881725;29;20538;-78
2022/04/09 15:20:16;;;;;;;0.70;0.67;;;16.90;40.00;;;;;;4881683;29;20539;-78
2022/04/09 15:22:45;;;;;;;0.60;0.60;;;16.30;41.30;;;;;;4881840;29;20596;-78
2022/04/09 15:25:13;;;;;;;0.70;0.70;;;16.40;42.10;;;;;;4881806;29;20489;-79
2022/04/09 15:27:40;;;;;;;0.60;0.60;;;15.60;42.50;;;;;;4881782;29;20486;-78
2022/04/09 15:30:09;;;;;;;0.80;0.70;;;14.80;43.90;;;;;;4881614;29;20502;-78
2022/04/09 15:32:36;;;;;;;0.70;0.63;;;14.20;45.20;;;;;;4881664;29;20486;-77
2022/04/09 15:35:04;;;;;;;0.70;0.70;;;13.50;45.00;;;;;;4881512;29;20462;-78
2022/04/09 15:37:30;;;;;;;1.00;0.70;;;12.80;47.00;;;;;;4881507;29;20458;-78
2022/04/09 15:39:57;;;;;;;0.70;0.53;;;12.50;48.70;;;;;;4881551;29;20895;-78
2022/04/09 15:42:26;;;;;;;0.70;0.60;;;12.30;50.40;;;;;;4881060;29;20479;-78
2022/04/09 15:44:53;;;;;;;0.70;0.70;;;12.30;49.40;;;;;;4881188;29;20860;-77
2022/04/09 15:47:19;;;;;;;0.80;0.60;;;12.30;48.70;;;;;;4881101;29;20841;-78
2022/04/09 15:49:46;;;;;;;0.70;0.60;;;12.10;47.50;;;;;;4881372;29;20534;-78
2022/04/09 15:52:13;;;;;;;0.70;0.60;;;12.20;48.10;;;;;;4880950;29;20904;-78
2022/04/09 15:54:42;;;;;;;0.90;0.77;;;11.90;47.70;;;;;;4881251;29;20463;-77
2022/04/09 15:57:09;;;;;;;0.70;0.70;;;11.80;48.40;;;;;;4881351;29;20454;-77